Aviation Digital Data Service (ADDS)

Output produced by TAFs form (0039 UTC 23 February 2018)
found at http://www.aviationweather.gov/adds/tafs/
 
EGPH 230020Z 16005KT CAVOK 01/M03 Q1022
TAF EGPH 222256Z 2300/2324 18006KT 9999 FEW025 
     PROB40 
     TEMPO 2302/2309 5000 HZ